KLUL/LUL METAR and TAF weather

Enter ICAO airport designator
Station Type Date Time Source
KLUL METAR 2019/12/07 04:55 UTC NOAA

KLUL 070455Z AUTO 36005KT 10SM BKN008 OVC019 14/13 A3018 RMK A02 T01350132


Station Type Date Time Source
KLUL Decoded METAR 2019/12/07 04:55 UTC NOAA

Station name not available
Dec 06, 2019 - 11:55 PM EST / 2019.12.07 0455 UTC
Wind: from the N (360 degrees) at 6 MPH (5 KT):0
Visibility: 10 mile(s):0
Sky conditions: overcast
Temperature: 56.3 F (13.5 C)
Dew Point: 55.8 F (13.2 C)
Relative Humidity: 98%
Pressure (altimeter): 30.18 in. Hg (1022 hPa)
ob: KLUL 070455Z AUTO 36005KT 10SM BKN008 OVC019 14/13 A3018 RMK A02 T01350132
cycle: 5

Station Type Date Time Source
KLUL TAF UTC NOAA

Error!

Example: see airport list